Time;durP1;ratioP1;P1;durP2;ratioP2;P2;SDS_P1;SDS_P2;PMS_P1;PMS_P2;Temp;Humidity;BMP_temperature;BMP_pressure;BME280_temperature;BME280_humidity;BME280_pressure;Samples;Min_cycle;Max_cycle;Signal;HPM_P1;HPM_P2
2022/12/12 00:00:22;;;;;;;33.78;19.63;;;;;;;2.09;100.00;147845.06;5049551;28;20025;-64
2022/12/12 00:02:47;;;;;;;35.72;20.25;;;;;;;2.21;100.00;147875.66;5040300;28;20044;-64
2022/12/12 00:05:15;;;;;;;37.30;20.55;;;;;;;2.14;100.00;147856.53;5045096;28;20032;-66
2022/12/12 00:07:41;;;;;;;27.48;17.65;;;;;;;2.15;100.00;147860.38;5032257;28;20314;-65
2022/12/12 00:10:07;;;;;;;27.20;18.20;;;;;;;2.18;100.00;147866.72;5030466;28;20026;-66
2022/12/12 00:12:33;;;;;;;33.20;19.20;;;;;;;2.19;100.00;147870.53;5035488;28;20045;-65
2022/12/12 00:14:58;;;;;;;32.10;19.02;;;;;;;2.20;100.00;147873.09;5043156;28;20225;-64
2022/12/12 00:17:24;;;;;;;27.60;17.95;;;;;;;2.27;100.00;147889.66;5040341;28;20333;-66
2022/12/12 00:19:49;;;;;;;35.00;18.45;;;;;;;2.35;100.00;147908.75;5033816;28;20054;-66
2022/12/12 00:22:15;;;;;;;28.35;17.10;;;;;;;2.34;100.00;147907.50;5038017;28;20195;-66
2022/12/12 00:24:41;;;;;;;27.58;17.33;;;;;;;2.32;100.00;147902.38;5039181;28;20101;-65
2022/12/12 00:27:08;;;;;;;29.48;16.65;;;;;;;2.33;100.00;147903.69;5046655;28;20056;-66
2022/12/12 00:29:33;;;;;;;26.20;15.98;;;;;;;2.36;100.00;147911.31;5039086;28;20038;-66
2022/12/12 00:31:59;;;;;;;30.75;15.98;;;;;;;2.23;100.00;147879.47;5042989;28;20201;-65
2022/12/12 00:34:25;;;;;;;26.42;16.67;;;;;;;2.25;100.00;147884.53;5030297;28;20025;-66
2022/12/12 00:36:50;;;;;;;25.95;15.75;;;;;;;2.30;100.00;147897.28;5049010;28;20025;-66
2022/12/12 00:39:17;;;;;;;29.17;15.90;;;;;;;2.33;100.00;147904.94;5033289;28;20281;-66
2022/12/12 00:41:43;;;;;;;21.77;14.35;;;;;;;2.37;100.00;147913.88;5029282;28;20034;-65
2022/12/12 00:44:10;;;;;;;24.25;15.00;;;;;;;2.38;100.00;147916.38;5035525;28;20021;-66
2022/12/12 00:46:35;;;;;;;23.88;14.90;;;;;;;2.41;100.00;147924.06;5037432;28;20037;-65
2022/12/12 00:49:01;;;;;;;26.05;16.42;;;;;;;2.44;100.00;147930.41;5026019;28;20128;-67
2022/12/12 00:51:28;;;;;;;25.83;15.52;;;;;;;2.42;100.00;147926.59;5043566;28;20061;-66
2022/12/12 00:53:58;;;;;;;28.38;15.48;;;;;;;2.39;100.00;147920.25;5033118;28;20030;-65
2022/12/12 00:56:26;;;;;;;25.92;15.70;;;;;;;2.41;100.00;147925.31;5040773;28;20044;-66
2022/12/12 00:58:52;;;;;;;27.23;15.52;;;;;;;2.41;100.00;147924.06;5041459;28;20026;-64
2022/12/12 01:01:24;;;;;;;25.63;15.63;;;;;;;2.44;100.00;147931.72;5026080;28;20047;-65
2022/12/12 01:03:50;;;;;;;28.75;17.10;;;;;;;2.53;100.00;147954.63;5025765;28;20072;-65
2022/12/12 01:06:16;;;;;;;23.15;14.32;;;;;;;2.48;100.00;147941.91;5041463;28;20032;-64
2022/12/12 01:08:42;;;;;;;25.83;14.23;;;;;;;2.42;100.00;147926.59;5045511;28;20033;-65
2022/12/12 01:11:09;;;;;;;28.17;14.65;;;;;;;2.34;100.00;147907.50;5038044;28;20022;-64
2022/12/12 01:13:35;;;;;;;25.10;14.73;;;;;;;2.48;100.00;147941.91;5025659;28;20033;-65
2022/12/12 01:16:01;;;;;;;24.70;14.20;;;;;;;2.55;100.00;147959.75;5026069;28;20046;-65
2022/12/12 01:18:27;;;;;;;26.45;15.10;;;;;;;2.54;100.00;147957.19;5037372;28;20345;-66
2022/12/12 01:20:53;;;;;;;27.35;15.80;;;;;;;2.50;100.00;147946.97;5026858;28;20048;-66
2022/12/12 01:23:18;;;;;;;24.75;14.93;;;;;;;2.57;100.00;147964.81;5031583;28;20080;-65
2022/12/12 01:25:44;;;;;;;25.25;15.35;;;;;;;2.57;100.00;147964.81;5028252;28;20025;-65
2022/12/12 01:28:10;;;;;;;24.05;14.90;;;;;;;2.65;100.00;147982.66;5045333;28;20041;-65
2022/12/12 01:30:35;;;;;;;26.25;15.82;;;;;;;2.63;100.00;147977.56;5027013;28;20305;-64
2022/12/12 01:33:02;;;;;;;26.67;14.93;;;;;;;2.62;100.00;147976.28;5038702;28;20393;-66
2022/12/12 01:35:29;;;;;;;24.70;13.95;;;;;;;2.67;100.00;147987.78;5036469;28;20034;-65
2022/12/12 01:37:55;;;;;;;26.45;13.55;;;;;;;2.56;100.00;147962.25;5029722;28;20107;-65
2022/12/12 01:40:25;;;;;;;24.83;14.85;;;;;;;2.70;100.00;147995.41;5037842;28;20022;-65
2022/12/12 01:42:50;;;;;;;20.95;13.18;;;;;;;2.68;100.00;147990.28;5024880;28;20026;-64
2022/12/12 01:45:53;;;;;;;20.33;13.43;;;;;;;2.67;100.00;147987.78;5025150;28;20077;-65
2022/12/12 01:48:21;;;;;;;19.42;13.32;;;;;;;2.66;100.00;147985.22;5025282;28;20034;-65
2022/12/12 01:50:47;;;;;;;19.45;12.50;;;;;;;2.69;100.00;147992.84;5036099;28;20352;-66
2022/12/12 01:53:16;;;;;;;25.42;14.18;;;;;;;2.75;100.00;148009.44;5038271;28;20348;-65
2022/12/12 01:55:41;;;;;;;21.48;12.48;;;;;;;2.68;100.00;147990.28;5033597;28;20055;-65
2022/12/12 01:58:07;;;;;;;20.80;12.75;;;;;;;2.71;100.00;147997.97;5044520;28;20025;-66
2022/12/12 02:00:33;;;;;;;19.90;12.13;;;;;;;2.75;100.00;148009.44;5027252;28;20053;-65
2022/12/12 02:02:59;;;;;;;20.80;11.65;;;;;;;2.77;100.00;148013.25;5037440;28;20044;-66
2022/12/12 02:05:30;;;;;;;17.50;10.23;;;;;;;2.70;100.00;147996.66;5036070;28;20030;-65
2022/12/12 02:07:58;;;;;;;17.63;11.18;;;;;;;2.76;100.00;148012.00;5028441;28;20040;-65
2022/12/12 02:10:24;;;;;;;21.08;11.63;;;;;;;2.83;100.00;148027.25;5044540;28;20036;-65
2022/12/12 02:12:49;;;;;;;17.70;12.20;;;;;;;2.83;100.00;148027.25;5024397;28;20029;-64
2022/12/12 02:15:16;;;;;;;14.30;10.25;;;;;;;2.75;100.00;148008.13;5024590;28;20149;-64
2022/12/12 02:18:00;;;;;;;17.83;11.80;;;;;;;2.85;100.00;148033.66;5034839;28;20029;-66
2022/12/12 02:20:34;;;;;;;15.45;10.20;;;;;;;2.82;100.00;148024.72;5036264;28;20089;-66
2022/12/12 02:22:59;;;;;;;16.30;10.35;;;;;;;2.79;100.00;148018.31;5038411;28;20037;-67
2022/12/12 02:25:57;;;;;;;15.07;9.75;;;;;;;2.68;100.00;147990.28;5024388;28;20034;-66
2022/12/12 02:28:42;;;;;;;13.63;9.90;;;;;;;2.77;100.00;148013.25;5024466;28;20026;-65
2022/12/12 02:31:30;;;;;;;16.55;10.00;;;;;;;2.82;100.00;148026.00;5024344;28;20025;-66
2022/12/12 02:34:29;;;;;;;18.70;11.25;;;;;;;2.84;100.00;148031.09;5026781;28;20073;-65
2022/12/12 02:37:24;;;;;;;13.63;9.63;;;;;;;2.81;100.00;148022.16;5024016;28;20041;-65
2022/12/12 02:40:02;;;;;;;17.05;10.23;;;;;;;2.66;100.00;147986.47;5056854;28;20052;-66
2022/12/12 02:42:48;;;;;;;16.45;10.93;;;;;;;2.86;100.00;148036.16;5024074;28;20067;-65
2022/12/12 02:45:59;;;;;;;14.77;10.75;;;;;;;2.88;100.00;148041.28;5038370;28;20048;-65
2022/12/12 02:48:30;;;;;;;13.20;8.40;;;;;;;2.79;100.00;148017.06;5043950;28;20076;-65
2022/12/12 02:50:59;;;;;;;15.68;11.18;;;;;;;2.75;100.00;148009.44;5043372;28;20056;-65
2022/12/12 02:53:25;;;;;;;13.95;9.80;;;;;;;2.84;100.00;148031.09;5035863;28;20124;-66
2022/12/12 02:56:28;;;;;;;14.20;9.30;;;;;;;2.92;100.00;148050.19;5033521;28;20033;-65
2022/12/12 02:58:54;;;;;;;14.80;9.50;;;;;;;2.89;100.00;148042.53;5042946;28;20040;-65
2022/12/12 03:01:39;;;;;;;13.85;9.25;;;;;;;2.84;100.00;148031.09;5043592;28;20045;-65
2022/12/12 03:10:26;;;;;;;15.32;9.05;;;;;;;2.89;100.00;148042.53;5023276;28;20073;-65
2022/12/12 03:13:07;;;;;;;11.85;8.88;;;;;;;2.82;100.00;148026.00;5027545;28;20087;-65
2022/12/12 03:15:54;;;;;;;12.30;8.60;;;;;;;2.94;100.00;148055.31;5040492;28;20041;-65
2022/12/12 03:18:30;;;;;;;11.77;8.57;;;;;;;2.90;100.00;148045.09;5028305;28;20108;-66
2022/12/12 03:21:04;;;;;;;10.88;8.10;;;;;;;2.86;100.00;148036.16;5032977;28;20347;-66
2022/12/12 03:23:37;;;;;;;11.68;8.32;;;;;;;2.86;100.00;148036.16;5031670;28;20025;-66
2022/12/12 03:26:27;;;;;;;13.50;8.27;;;;;;;2.91;100.00;148048.94;5038792;28;20060;-66
2022/12/12 03:29:10;;;;;;;11.70;8.00;;;;;;;2.87;100.00;148038.72;5025760;28;20033;-66
2022/12/12 03:31:40;;;;;;;12.70;7.95;;;;;;;2.84;100.00;148029.84;5042603;28;20080;-67
2022/12/12 03:34:29;;;;;;;10.10;7.97;;;;;;;2.96;100.00;148059.13;5023422;28;20059;-67
2022/12/12 03:37:02;;;;;;;12.55;8.07;;;;;;;2.77;100.00;148013.25;5023366;28;20037;-66
2022/12/12 03:39:34;;;;;;;13.00;8.50;;;;;;;2.91;100.00;148047.66;5026994;28;20048;-66
2022/12/12 03:42:28;;;;;;;10.88;7.60;;;;;;;2.88;100.00;148041.28;5034028;28;20186;-66
2022/12/12 03:45:02;;;;;;;14.27;8.73;;;;;;;2.95;100.00;148057.88;5031737;28;20022;-65
2022/12/12 03:47:36;;;;;;;11.57;8.30;;;;;;;2.93;100.00;148054.00;5029685;28;20223;-65
2022/12/12 03:50:11;;;;;;;11.32;7.65;;;;;;;2.90;100.00;148045.09;5039050;28;20032;-66
2022/12/12 03:52:44;;;;;;;15.63;8.82;;;;;;;2.82;100.00;148026.00;5029000;28;20030;-65
2022/12/12 03:55:25;;;;;;;15.93;9.60;;;;;;;2.85;100.00;148032.34;5027647;28;20022;-65
2022/12/12 03:57:59;;;;;;;10.82;8.20;;;;;;;2.83;100.00;148027.25;5035624;28;20109;-66
2022/12/12 04:00:28;;;;;;;11.23;8.00;;;;;;;2.93;100.00;148054.00;5023268;28;20033;-65
2022/12/12 04:03:25;;;;;;;11.60;7.50;;;;;;;2.94;100.00;148056.56;5033738;28;20032;-66
2022/12/12 04:12:57;;;;;;;9.82;7.32;;;;;;;2.85;100.00;148033.66;5027310;28;20033;-65
2022/12/12 04:14:58;;;;;;;10.98;7.90;;;;;;;2.89;100.00;148042.53;5028888;28;20087;-65
2022/12/12 04:17:36;;;;;;;12.57;8.35;;;;;;;3.01;100.00;148073.16;5035730;28;20034;-65
2022/12/12 04:23:40;;;;;;;11.20;8.25;;;;;;;3.00;100.00;148070.59;5033044;28;20137;-64
2022/12/12 04:29:14;;;;;;;12.48;8.57;;;;;;;3.07;100.00;148087.19;5028744;28;20087;-65
2022/12/12 04:32:10;;;;;;;10.40;7.13;;;;;;;2.89;100.00;148043.84;5030815;28;20109;-65
2022/12/12 04:34:53;;;;;;;9.98;7.72;;;;;;;2.85;100.00;148033.66;5033803;28;20042;-65
2022/12/12 04:37:30;;;;;;;10.60;7.60;;;;;;;2.82;100.00;148026.00;5036782;28;20052;-64
2022/12/12 04:39:59;;;;;;;10.07;7.85;;;;;;;2.92;100.00;148051.50;5036808;28;20093;-65
2022/12/12 04:42:31;;;;;;;11.60;8.05;;;;;;;2.84;100.00;148031.09;5037805;28;20317;-66
2022/12/12 04:45:04;;;;;;;11.27;8.77;;;;;;;2.91;100.00;148047.66;5034409;28;20092;-66
2022/12/12 04:47:32;;;;;;;14.20;8.15;;;;;;;2.98;100.00;148064.22;5037105;28;20028;-65
2022/12/12 04:50:01;;;;;;;11.00;7.82;;;;;;;2.80;100.00;148020.88;5036993;28;20030;-65
2022/12/12 04:52:30;;;;;;;10.50;8.07;;;;;;;2.86;100.00;148036.16;5026865;28;20287;-65
2022/12/12 04:55:10;;;;;;;10.25;8.45;;;;;;;2.75;100.00;148009.44;5028181;28;20105;-65
2022/12/12 04:57:41;;;;;;;10.68;8.25;;;;;;;2.99;100.00;148066.78;5045336;28;20040;-65
2022/12/12 05:00:09;;;;;;;11.07;8.82;;;;;;;2.97;100.00;148062.94;5033221;28;20026;-65
2022/12/12 05:03:20;;;;;;;12.32;8.10;;;;;;;3.01;100.00;148071.91;5025753;28;20026;-66
2022/12/12 05:06:07;;;;;;;11.05;7.72;;;;;;;3.03;100.00;148076.97;5034716;28;20045;-64
2022/12/12 05:08:36;;;;;;;11.02;7.45;;;;;;;2.89;100.00;148042.53;5033437;28;20093;-64
2022/12/12 05:11:04;;;;;;;10.30;7.75;;;;;;;2.83;100.00;148028.53;5025415;28;20029;-64
2022/12/12 05:13:33;;;;;;;9.43;7.88;;;;;;;2.93;100.00;148052.75;5025755;28;20041;-64
2022/12/12 05:16:01;;;;;;;13.05;7.45;;;;;;;2.89;100.00;148042.53;5039823;28;20256;-65
2022/12/12 05:18:26;;;;;;;10.38;8.52;;;;;;;2.96;100.00;148059.13;5024054;28;20040;-64
2022/12/12 05:20:52;;;;;;;10.35;7.85;;;;;;;2.99;100.00;148068.03;5032461;28;20068;-64
2022/12/12 05:23:18;;;;;;;10.38;7.55;;;;;;;2.84;100.00;148031.09;5034539;28;20025;-64
2022/12/12 05:25:43;;;;;;;10.02;8.18;;;;;;;2.90;100.00;148046.38;5025240;28;20045;-65
2022/12/12 05:28:09;;;;;;;10.95;8.20;;;;;;;2.92;100.00;148050.19;5030414;28;20045;-65
2022/12/12 05:30:35;;;;;;;11.90;8.85;;;;;;;2.89;100.00;148042.53;5027977;28;20099;-64
2022/12/12 05:33:00;;;;;;;12.68;8.45;;;;;;;2.92;100.00;148051.50;5034889;28;20029;-64
2022/12/12 05:35:26;;;;;;;10.15;8.38;;;;;;;2.94;100.00;148056.56;5035097;28;20029;-65
2022/12/12 05:37:52;;;;;;;10.52;8.55;;;;;;;2.93;100.00;148054.00;5033761;28;20026;-65
2022/12/12 05:40:19;;;;;;;11.63;8.00;;;;;;;2.89;100.00;148042.53;5035741;28;20121;-65
2022/12/12 05:42:45;;;;;;;14.40;8.35;;;;;;;2.96;100.00;148059.13;5033776;28;20075;-64
2022/12/12 05:45:10;;;;;;;11.73;8.48;;;;;;;2.94;100.00;148056.56;5033520;28;20022;-64
2022/12/12 05:47:36;;;;;;;9.73;8.20;;;;;;;2.91;100.00;148048.94;5034270;28;20036;-65
2022/12/12 05:50:03;;;;;;;9.45;7.30;;;;;;;2.89;100.00;148043.84;5033650;28;20034;-64
2022/12/12 05:52:29;;;;;;;10.18;7.85;;;;;;;2.89;100.00;148043.84;5033486;28;20025;-66
2022/12/12 05:54:54;;;;;;;7.60;6.78;;;;;;;2.88;100.00;148041.28;5039220;28;20075;-66
2022/12/12 05:57:20;;;;;;;9.85;7.35;;;;;;;2.83;100.00;148028.53;5024847;28;20026;-67
2022/12/12 05:59:46;;;;;;;8.90;7.47;;;;;;;2.93;100.00;148052.75;5023441;28;20025;-65
2022/12/12 06:02:12;;;;;;;11.30;7.35;;;;;;;3.05;100.00;148082.03;5028771;28;20101;-66
2022/12/12 06:04:38;;;;;;;9.48;7.15;;;;;;;2.90;100.00;148045.09;5044260;28;20306;-65
2022/12/12 06:07:04;;;;;;;8.20;6.78;;;;;;;2.90;100.00;148046.38;5024620;28;20049;-65
2022/12/12 06:09:30;;;;;;;9.82;7.25;;;;;;;2.81;100.00;148023.44;5034281;28;20026;-65
2022/12/12 06:11:57;;;;;;;10.85;7.57;;;;;;;3.00;100.00;148069.34;5031731;28;20031;-65
2022/12/12 06:14:22;;;;;;;7.85;6.50;;;;;;;2.94;100.00;148055.31;5035120;28;20053;-65
2022/12/12 06:16:48;;;;;;;9.18;6.30;;;;;;;2.86;100.00;148034.91;5032666;28;20190;-66
2022/12/12 06:19:14;;;;;;;8.05;6.25;;;;;;;2.93;100.00;148052.75;5034917;28;20036;-66
2022/12/12 06:21:39;;;;;;;9.50;6.55;;;;;;;3.02;100.00;148074.41;5034433;28;20017;-65
2022/12/12 06:24:06;;;;;;;9.63;6.90;;;;;;;3.06;100.00;148085.88;5035266;28;20025;-65
2022/12/12 06:26:32;;;;;;;7.90;6.80;;;;;;;3.04;100.00;148079.53;5034833;28;20064;-65
2022/12/12 06:28:57;;;;;;;11.77;6.20;;;;;;;2.99;100.00;148066.78;5032433;28;20036;-64
2022/12/12 06:31:23;;;;;;;7.80;6.38;;;;;;;2.91;100.00;148047.66;5035573;28;20215;-65
2022/12/12 06:33:48;;;;;;;7.90;6.28;;;;;;;2.85;100.00;148032.34;5032657;28;20381;-64
2022/12/12 06:36:22;;;;;;;7.85;6.63;;;;;;;3.05;100.00;148083.34;5030397;28;20022;-65
2022/12/12 06:38:58;;;;;;;8.23;6.22;;;;;;;3.00;100.00;148069.34;5024048;28;20030;-65
2022/12/12 06:41:26;;;;;;;7.40;6.10;;;;;;;2.93;100.00;148054.00;5029646;28;20079;-65
2022/12/12 06:43:52;;;;;;;8.73;6.03;;;;;;;2.93;100.00;148052.75;5037565;28;20336;-65
2022/12/12 06:46:21;;;;;;;7.50;6.10;;;;;;;2.92;100.00;148051.50;5037824;28;20025;-65
2022/12/12 06:48:46;;;;;;;7.05;6.20;;;;;;;3.06;100.00;148085.88;5032010;28;20048;-64
2022/12/12 06:51:15;;;;;;;8.02;5.75;;;;;;;2.93;100.00;148052.75;5026567;28;20037;-64
2022/12/12 06:53:41;;;;;;;8.98;6.57;;;;;;;2.96;100.00;148060.38;5031174;28;20022;-64
2022/12/12 06:56:08;;;;;;;7.93;6.03;;;;;;;2.96;100.00;148059.13;5036207;28;20021;-63
2022/12/12 06:58:34;;;;;;;8.55;5.93;;;;;;;3.00;100.00;148069.34;5035291;28;20234;-65
2022/12/12 07:01:00;;;;;;;7.88;5.78;;;;;;;2.69;100.00;147994.09;5035833;28;20355;-65
2022/12/12 07:03:25;;;;;;;7.80;5.22;;;;;;;2.91;100.00;148048.94;5034656;28;20076;-64
2022/12/12 07:05:51;;;;;;;6.75;5.68;;;;;;;2.97;100.00;148061.69;5024711;28;20022;-64
2022/12/12 07:08:16;;;;;;;7.80;6.53;;;;;;;3.00;100.00;148070.59;5035747;28;20217;-65
2022/12/12 07:10:43;;;;;;;8.73;6.18;;;;;;;2.88;100.00;148041.28;5032151;28;20214;-65
2022/12/12 07:13:09;;;;;;;12.23;6.78;;;;;;;2.94;100.00;148056.56;5024203;28;20069;-63
2022/12/12 07:15:44;;;;;;;9.38;6.80;;;;;;;2.84;100.00;148031.09;5031301;28;20462;-64
2022/12/12 07:18:09;;;;;;;7.95;7.10;;;;;;;3.03;100.00;148076.97;5030068;28;20029;-66
2022/12/12 07:20:39;;;;;;;8.48;6.80;;;;;;;3.00;100.00;148070.59;5030983;28;20097;-65
2022/12/12 07:23:04;;;;;;;9.65;7.70;;;;;;;3.02;100.00;148074.41;5033935;28;20032;-64
2022/12/12 07:25:30;;;;;;;9.57;6.97;;;;;;;3.04;100.00;148079.53;5039868;28;20046;-64
2022/12/12 07:27:56;;;;;;;8.32;6.75;;;;;;;2.98;100.00;148064.22;5028670;28;20028;-65
2022/12/12 07:30:21;;;;;;;10.75;8.20;;;;;;;2.88;100.00;148041.28;5032359;28;20022;-63
2022/12/12 07:32:47;;;;;;;11.20;8.40;;;;;;;3.03;100.00;148076.97;5036395;28;20088;-63
2022/12/12 07:35:12;;;;;;;11.07;8.38;;;;;;;3.09;100.00;148093.56;5038393;28;20322;-63
2022/12/12 07:37:38;;;;;;;11.45;8.50;;;;;;;3.08;100.00;148091.00;5033293;28;20182;-63
2022/12/12 07:40:04;;;;;;;13.00;9.60;;;;;;;3.04;100.00;148079.53;5031266;28;20017;-63
2022/12/12 07:42:29;;;;;;;10.50;8.77;;;;;;;2.99;100.00;148068.03;5033902;28;20068;-63
2022/12/12 07:44:55;;;;;;;13.40;9.23;;;;;;;2.97;100.00;148061.69;5033357;28;20250;-63
2022/12/12 07:47:20;;;;;;;12.65;8.55;;;;;;;2.99;100.00;148066.78;5033607;28;20025;-63
2022/12/12 07:49:46;;;;;;;10.20;8.98;;;;;;;3.05;100.00;148083.34;5033329;28;20025;-62
2022/12/12 07:52:11;;;;;;;12.20;8.68;;;;;;;2.96;100.00;148060.38;5033714;28;20037;-62
2022/12/12 07:54:37;;;;;;;11.90;8.98;;;;;;;3.06;100.00;148085.88;5034259;28;20033;-63
2022/12/12 07:57:03;;;;;;;13.65;9.45;;;;;;;3.02;100.00;148075.72;5038288;28;20093;-63
2022/12/12 07:59:28;;;;;;;11.13;8.63;;;;;;;2.98;100.00;148064.22;5035577;28;20038;-64
2022/12/12 08:01:54;;;;;;;12.85;8.45;;;;;;;3.02;100.00;148075.72;5027372;28;20052;-63
2022/12/12 08:04:19;;;;;;;15.85;9.52;;;;;;;3.08;100.00;148089.75;5046382;28;20034;-64
2022/12/12 08:06:45;;;;;;;12.93;9.57;;;;;;;3.02;100.00;148074.41;5030647;28;20029;-63
2022/12/12 08:09:10;;;;;;;17.40;11.75;;;;;;;3.04;100.00;148079.53;5036824;28;20040;-63
2022/12/12 08:11:36;;;;;;;14.88;11.10;;;;;;;3.08;100.00;148089.75;5034631;28;20041;-63
2022/12/12 08:14:04;;;;;;;14.20;10.55;;;;;;;3.14;100.00;148105.03;5032020;28;20034;-63
2022/12/12 08:16:30;;;;;;;17.80;11.75;;;;;;;3.13;100.00;148102.47;5026423;28;20026;-63
2022/12/12 08:18:57;;;;;;;18.10;12.45;;;;;;;3.11;100.00;148098.63;5039399;28;20029;-63
2022/12/12 08:21:24;;;;;;;15.98;11.70;;;;;;;3.11;100.00;148097.38;5038670;28;20017;-62
2022/12/12 08:23:50;;;;;;;17.60;11.82;;;;;;;3.03;100.00;148076.97;5037790;28;20199;-63
2022/12/12 08:26:17;;;;;;;16.20;12.32;;;;;;;3.11;100.00;148098.63;5026407;28;20028;-64
2022/12/12 08:28:44;;;;;;;15.75;10.95;;;;;;;3.01;100.00;148071.91;5034026;28;20041;-62
2022/12/12 08:31:12;;;;;;;15.05;11.55;;;;;;;3.07;100.00;148088.44;5032940;28;20032;-63
2022/12/12 08:33:38;;;;;;;17.70;11.80;;;;;;;3.13;100.00;148101.19;5035430;28;20034;-63
2022/12/12 08:36:13;;;;;;;18.08;11.98;;;;;;;3.15;100.00;148107.59;5035683;28;20076;-63
2022/12/12 08:38:38;;;;;;;19.30;11.57;;;;;;;3.16;100.00;148110.09;5036608;28;20036;-62
2022/12/12 08:41:04;;;;;;;15.00;10.25;;;;;;;3.16;100.00;148108.84;5040742;28;20033;-62
2022/12/12 08:43:29;;;;;;;14.57;9.90;;;;;;;3.15;100.00;148107.59;5036216;28;20028;-62
2022/12/12 08:46:00;;;;;;;14.05;9.55;;;;;;;3.15;100.00;148107.59;5032351;28;20032;-63
2022/12/12 08:48:26;;;;;;;13.57;10.13;;;;;;;3.15;100.00;148107.59;5035206;28;20029;-62
2022/12/12 08:50:51;;;;;;;16.15;10.23;;;;;;;3.06;100.00;148084.59;5028292;28;20053;-62
2022/12/12 08:53:17;;;;;;;15.43;10.00;;;;;;;3.12;100.00;148099.91;5029253;28;20088;-63
2022/12/12 08:55:43;;;;;;;13.35;9.95;;;;;;;3.18;100.00;148113.91;5036777;28;20037;-64
2022/12/12 08:58:08;;;;;;;11.77;8.70;;;;;;;3.22;100.00;148125.44;5036582;28;20309;-64
2022/12/12 09:00:35;;;;;;;9.90;8.13;;;;;;;3.15;100.00;148106.28;5033536;28;20206;-65
2022/12/12 09:03:00;;;;;;;13.45;8.48;;;;;;;3.11;100.00;148097.38;5033580;28;20034;-65
2022/12/12 09:05:26;;;;;;;11.20;8.38;;;;;;;3.20;99.87;148120.31;5030191;28;20352;-64
2022/12/12 09:07:52;;;;;;;10.13;8.35;;;;;;;3.21;100.00;148121.59;5044658;28;20080;-64
2022/12/12 09:10:17;;;;;;;11.05;8.15;;;;;;;3.20;100.00;148120.31;5030140;28;20041;-64
2022/12/12 09:12:43;;;;;;;10.88;8.30;;;;;;;3.18;100.00;148115.22;5037279;28;20025;-64
2022/12/12 09:15:09;;;;;;;13.05;8.52;;;;;;;3.11;99.92;148098.63;5031708;28;20096;-64
2022/12/12 09:17:35;;;;;;;12.90;9.13;;;;;;;3.23;100.00;148126.69;5029756;28;20033;-64
2022/12/12 09:20:00;;;;;;;12.07;9.15;;;;;;;3.15;99.93;148106.28;5025719;28;20026;-64
2022/12/12 09:22:26;;;;;;;12.60;9.02;;;;;;;3.25;99.80;148133.06;5039014;28;20068;-64
2022/12/12 09:24:51;;;;;;;15.15;9.30;;;;;;;3.09;100.00;148093.56;5029021;28;20025;-63
2022/12/12 09:27:17;;;;;;;11.90;9.23;;;;;;;3.16;100.00;148108.84;5028291;28;20022;-64
2022/12/12 09:29:42;;;;;;;13.38;10.20;;;;;;;3.14;100.00;148103.75;5031911;28;20038;-64
2022/12/12 09:32:08;;;;;;;13.50;10.10;;;;;;;2.97;100.00;148062.94;5042034;28;20063;-63
2022/12/12 09:34:36;;;;;;;13.38;9.48;;;;;;;2.99;100.00;148068.03;5025118;28;20033;-65
2022/12/12 09:37:01;;;;;;;19.40;11.02;;;;;;;3.01;100.00;148071.91;5027397;28;20041;-64
2022/12/12 09:39:27;;;;;;;15.18;10.20;;;;;;;3.04;100.00;148080.78;5032004;28;20018;-64
2022/12/12 09:41:53;;;;;;;15.20;10.45;;;;;;;2.99;100.00;148066.78;5036369;28;20317;-64
2022/12/12 09:44:21;;;;;;;15.48;12.18;;;;;;;3.06;100.00;148084.59;5035187;28;20068;-64
2022/12/12 09:46:54;;;;;;;16.75;11.35;;;;;;;2.99;100.00;148066.78;5031859;28;20025;-63
2022/12/12 09:49:53;;;;;;;16.80;11.65;;;;;;;3.09;100.00;148092.25;5024919;28;20029;-64
2022/12/12 09:52:37;;;;;;;17.08;11.50;;;;;;;3.06;100.00;148084.59;5044035;28;20336;-63
2022/12/12 09:55:41;;;;;;;18.45;12.73;;;;;;;3.21;100.00;148122.88;5044350;28;20191;-64
2022/12/12 09:58:25;;;;;;;17.40;12.57;;;;;;;3.07;100.00;148088.44;5044052;28;20044;-64
2022/12/12 10:01:04;;;;;;;20.35;13.95;;;;;;;3.12;100.00;148099.91;5043072;28;20421;-63
2022/12/12 10:03:38;;;;;;;18.52;13.38;;;;;;;3.03;100.00;148078.22;5034803;28;20211;-63
2022/12/12 10:06:10;;;;;;;17.15;13.55;;;;;;;3.10;100.00;148096.06;5034739;28;20317;-64
2022/12/12 10:08:54;;;;;;;;;;;;;;;3.14;100.00;148105.03;5034363;28;20040;-64
2022/12/12 10:11:49;;;;;;;22.73;13.27;;;;;;;3.04;100.00;148079.53;5034224;28;20181;-63
2022/12/12 10:14:26;;;;;;;23.13;14.38;;;;;;;3.06;100.00;148084.59;5024633;28;20075;-63
2022/12/12 10:16:53;;;;;;;23.90;15.73;;;;;;;3.22;100.00;148124.13;5034780;28;20029;-64
2022/12/12 10:19:29;;;;;;;21.35;14.18;;;;;;;2.98;100.00;148064.22;5033915;28;20041;-64
2022/12/12 10:22:03;;;;;;;22.95;15.52;;;;;;;3.09;100.00;148093.56;5033773;28;20055;-64
2022/12/12 10:25:14;;;;;;;19.33;14.45;;;;;;;3.08;100.00;148091.00;5034364;28;20025;-63
2022/12/12 10:27:39;;;;;;;22.08;14.43;;;;;;;3.13;100.00;148102.47;5051178;28;20084;-64
2022/12/12 10:30:16;;;;;;;23.02;15.20;;;;;;;3.13;100.00;148102.47;5034169;28;20025;-63
2022/12/12 10:32:47;;;;;;;25.50;15.30;;;;;;;3.19;100.00;148117.78;5033735;28;20258;-63
2022/12/12 10:35:28;;;;;;;18.27;14.38;;;;;;;3.16;100.00;148110.09;5026045;28;20314;-64
2022/12/12 10:38:21;;;;;;;25.08;16.02;;;;;;;3.12;100.00;148099.91;5036411;28;20223;-64
2022/12/12 10:40:47;;;;;;;22.58;16.30;;;;;;;3.21;100.00;148122.88;5029190;28;20209;-64
2022/12/12 10:43:25;;;;;;;25.58;15.00;;;;;;;3.16;100.00;148108.84;5025635;28;20053;-64
2022/12/12 10:46:03;;;;;;;26.77;16.50;;;;;;;3.23;100.00;148126.69;5024017;28;20369;-64
2022/12/12 10:48:28;;;;;;;24.80;15.45;;;;;;;3.18;100.00;148115.22;5043300;28;20383;-64
2022/12/12 10:51:06;;;;;;;23.73;15.15;;;;;;;3.18;100.00;148115.22;5035831;28;20093;-64
2022/12/12 10:53:33;;;;;;;23.17;16.00;;;;;;;3.24;100.00;148130.50;5030453;28;20034;-63
2022/12/12 10:56:12;;;;;;;23.23;15.50;;;;;;;3.16;100.00;148110.09;5041863;28;20068;-63
2022/12/12 10:58:43;;;;;;;24.58;14.65;;;;;;;3.15;100.00;148107.59;5028761;28;20137;-64
2022/12/12 11:01:25;;;;;;;22.20;15.50;;;;;;;3.22;99.93;148125.44;5032311;28;20248;-64
2022/12/12 11:03:53;;;;;;;20.98;15.73;;;;;;;3.20;100.00;148120.31;5031030;28;20406;-64
2022/12/12 11:06:45;;;;;;;25.52;16.45;;;;;;;3.13;100.00;148102.47;5033825;28;20025;-64
2022/12/12 11:09:23;;;;;;;23.63;16.90;;;;;;;3.19;100.00;148117.78;5031479;28;20085;-63
2022/12/12 11:12:08;;;;;;;27.48;17.13;;;;;;;3.21;100.00;148121.59;5033906;28;20018;-64
2022/12/12 11:14:39;;;;;;;26.75;18.17;;;;;;;3.17;99.46;148112.66;5032890;28;20373;-65
2022/12/12 11:17:20;;;;;;;24.38;16.83;;;;;;;3.11;100.00;148097.38;5032207;28;20176;-64
2022/12/12 11:19:46;;;;;;;25.07;16.87;;;;;;;3.23;100.00;148127.94;5034024;28;20100;-63
2022/12/12 11:22:13;;;;;;;24.58;16.33;;;;;;;3.11;99.59;148097.38;5033152;28;20021;-64
2022/12/12 11:24:43;;;;;;;29.63;16.35;;;;;;;2.98;99.63;148065.50;5029602;28;20026;-65
2022/12/12 11:27:20;;;;;;;26.90;17.25;;;;;;;2.82;99.74;148024.72;5032268;28;20326;-64
2022/12/12 11:29:50;;;;;;;24.63;16.90;;;;;;;3.10;100.00;148094.81;5033108;28;20210;-66
2022/12/12 11:32:18;;;;;;;24.70;16.85;;;;;;;3.11;100.00;148098.63;5031860;28;20027;-63
2022/12/12 11:34:48;;;;;;;28.38;18.67;;;;;;;3.12;99.87;148099.91;5033545;28;20022;-65
2022/12/12 11:37:19;;;;;;;27.60;18.23;;;;;;;3.16;99.84;148110.09;5033335;28;20026;-65
2022/12/12 11:39:48;;;;;;;25.60;17.27;;;;;;;3.06;99.87;148084.59;5032680;28;20049;-64
2022/12/12 11:42:13;;;;;;;26.83;17.00;;;;;;;3.04;99.64;148079.53;5031512;28;20438;-65
2022/12/12 11:44:40;;;;;;;21.80;17.48;;;;;;;3.07;99.88;148087.19;5031967;28;20033;-63
2022/12/12 11:47:17;;;;;;;26.55;16.83;;;;;;;3.14;99.55;148103.75;5030872;28;20025;-64
2022/12/12 11:50:01;;;;;;;22.42;16.95;;;;;;;3.03;99.50;148076.97;5033564;28;20174;-64